Time;durP1;ratioP1;P1;durP2;ratioP2;P2;SDS_P1;SDS_P2;PMS_P1;PMS_P2;Temp;Humidity;BMP_temperature;BMP_pressure;BME280_temperature;BME280_humidity;BME280_pressure;Samples;Min_cycle;Max_cycle;Signal;HPM_P1;HPM_P2
2023/11/21 00:00:12;;;;;;;16.10;8.50;;;12.50;99.90;;;12.82;94.41;100953.63;5073218;28;20099;-66
2023/11/21 00:02:42;;;;;;;18.83;9.52;;;12.50;99.90;;;12.85;94.21;100950.94;5072182;28;20045;-66
2023/11/21 00:05:14;;;;;;;19.52;10.23;;;12.50;99.90;;;12.86;93.98;100952.69;5072975;28;20033;-66
2023/11/21 00:07:42;;;;;;;22.98;10.60;;;12.60;99.90;;;12.86;93.86;100947.38;5073140;28;20049;-66
2023/11/21 00:10:14;;;;;;;21.08;10.93;;;12.60;99.90;;;12.91;93.95;100959.69;5072592;28;20045;-66
2023/11/21 00:12:43;;;;;;;19.00;9.68;;;12.60;99.90;;;12.91;93.90;100957.03;5072637;28;20102;-66
2023/11/21 00:15:11;;;;;;;16.38;9.43;;;12.60;99.90;;;12.90;93.39;100954.41;5073073;28;20052;-66
2023/11/21 00:17:42;;;;;;;17.05;9.00;;;12.60;99.90;;;12.96;93.63;100957.88;5072779;28;20045;-66
2023/11/21 00:20:12;;;;;;;19.88;9.77;;;12.70;99.90;;;12.98;93.14;100961.41;5072503;28;20094;-66
2023/11/21 00:22:42;;;;;;;16.17;9.23;;;12.70;99.90;;;12.92;93.58;100958.81;5072471;28;20560;-66
2023/11/21 00:25:11;;;;;;;21.35;9.65;;;12.70;99.90;;;12.94;93.48;100959.66;5072925;28;20479;-66
2023/11/21 00:27:40;;;;;;;17.23;9.15;;;12.70;99.90;;;12.95;93.62;100966.72;5072863;28;20089;-66
2023/11/21 00:30:09;;;;;;;17.88;9.10;;;12.70;99.90;;;12.94;93.52;100954.34;5072684;28;20045;-66
2023/11/21 00:32:39;;;;;;;23.25;10.18;;;12.70;99.90;;;12.93;93.50;100952.59;5088208;28;20059;-66
2023/11/21 00:35:10;;;;;;;17.70;9.68;;;12.60;99.90;;;12.96;93.42;100957.00;5072329;28;20407;-66
2023/11/21 00:37:38;;;;;;;;;;;12.70;99.90;;;12.99;93.66;100960.47;5073096;28;20037;-66
2023/11/21 00:40:09;;;;;;;21.25;10.23;;;12.70;99.90;;;12.98;93.58;100961.41;5072544;28;20263;-66
2023/11/21 00:42:37;;;;;;;16.25;9.40;;;12.70;99.90;;;12.98;93.42;100966.69;5072905;28;20040;-66
2023/11/21 00:45:09;;;;;;;16.10;9.23;;;12.70;99.90;;;12.98;94.04;100966.69;5088012;28;20110;-66
2023/11/21 00:47:38;;;;;;;18.58;9.75;;;12.70;99.90;;;12.99;94.15;100960.47;5072320;28;20049;-66
2023/11/21 00:50:10;;;;;;;17.33;8.88;;;12.60;99.90;;;12.94;94.43;100969.41;5071202;28;20072;-66
2023/11/21 00:52:38;;;;;;;18.23;9.68;;;12.60;99.90;;;12.89;94.89;100969.44;5072805;28;20561;-66
2023/11/21 00:55:08;;;;;;;16.65;8.55;;;12.50;99.90;;;12.84;95.00;100968.63;5087937;28;20471;-66
2023/11/21 00:57:37;;;;;;;18.50;9.25;;;12.50;99.90;;;12.77;95.09;100956.34;5072461;28;20052;-68
2023/11/21 01:00:09;;;;;;;13.00;8.25;;;12.50;99.90;;;12.87;95.09;100979.25;5087704;28;20052;-67
2023/11/21 01:02:37;;;;;;;14.80;7.88;;;12.50;99.90;;;12.78;95.03;100979.31;5071164;28;20066;-68
2023/11/21 01:05:08;;;;;;;12.35;7.50;;;12.40;99.90;;;12.76;95.29;100980.22;5072376;28;20052;-67
2023/11/21 01:07:38;;;;;;;;;;;12.40;99.90;;;12.69;95.19;100977.69;5072500;28;20045;-67
2023/11/21 01:10:07;;;;;;;14.43;8.10;;;12.40;99.90;;;12.65;95.63;100972.41;5071723;28;19936;-67
2023/11/21 01:12:37;;;;;;;11.30;7.57;;;12.30;99.90;;;12.75;95.37;100982.03;5072115;28;20462;-67
2023/11/21 01:15:08;;;;;;;18.55;9.15;;;12.40;99.90;;;12.77;94.99;100979.34;5075355;28;20123;-67
2023/11/21 01:17:37;;;;;;;17.23;8.60;;;12.40;99.90;;;12.76;95.36;100986.44;5091903;28;20429;-67
2023/11/21 01:20:11;;;;;;;17.27;8.67;;;12.40;99.90;;;12.76;95.49;100981.13;5074714;28;20056;-67
2023/11/21 01:22:42;;;;;;;14.55;8.40;;;12.40;99.90;;;12.38;95.20;100909.03;5075895;28;20054;-67
2023/11/21 01:25:14;;;;;;;17.17;8.55;;;12.40;99.90;;;12.78;95.10;100989.94;5075891;28;20368;-67
2023/11/21 01:27:43;;;;;;;18.92;8.60;;;12.40;99.90;;;12.76;95.15;101009.44;5075857;28;20430;-67
2023/11/21 01:30:12;;;;;;;15.60;8.98;;;12.40;99.90;;;12.16;95.04;100905.72;5075629;28;20048;-67
2023/11/21 01:32:41;;;;;;;17.58;8.15;;;12.40;99.90;;;12.81;95.32;101003.19;5075688;28;20043;-67
2023/11/21 01:35:10;;;;;;;14.63;8.35;;;12.40;99.90;;;12.91;94.99;101004.81;5091165;28;20044;-67
2023/11/21 01:37:39;;;;;;;19.08;9.00;;;12.50;99.90;;;12.89;95.15;101011.06;5075280;28;20067;-67
2023/11/21 01:40:13;;;;;;;17.50;8.55;;;12.50;99.90;;;12.84;95.33;101018.19;5075526;28;20044;-67
2023/11/21 01:42:44;;;;;;;16.85;8.32;;;12.50;99.90;;;12.74;95.07;101017.41;5075555;28;20159;-67
2023/11/21 01:45:12;;;;;;;20.42;8.57;;;12.40;99.90;;;12.70;95.28;101027.19;5074384;28;20090;-67
2023/11/21 01:47:42;;;;;;;13.75;8.18;;;12.30;99.90;;;12.69;95.66;101020.13;5073659;28;20076;-67
2023/11/21 01:50:17;;;;;;;16.65;8.75;;;12.30;99.90;;;12.69;95.90;101029.88;5090978;28;20048;-67
2023/11/21 01:52:48;;;;;;;16.40;8.80;;;12.20;99.90;;;12.65;96.27;101023.72;5075376;28;20036;-68
2023/11/21 01:55:19;;;;;;;14.20;8.45;;;12.30;99.90;;;12.73;96.69;101041.31;5075011;28;20495;-67
2023/11/21 01:57:57;;;;;;;15.65;7.97;;;12.30;99.90;;;12.68;96.32;101039.59;5073995;28;20067;-67
2023/11/21 02:00:27;;;;;;;12.57;7.93;;;12.30;99.90;;;12.63;96.53;101038.78;5090767;28;20061;-67
2023/11/21 02:02:57;;;;;;;18.30;8.63;;;12.30;99.90;;;12.68;96.79;101041.34;5075176;28;20052;-67
2023/11/21 02:05:26;;;;;;;14.90;7.70;;;12.30;99.90;;;12.67;97.14;101036.97;5073485;28;20148;-67
2023/11/21 02:07:56;;;;;;;15.02;7.93;;;12.30;99.90;;;12.63;97.42;101032.59;5090621;28;20060;-67
2023/11/21 02:10:26;;;;;;;11.75;7.57;;;12.30;99.90;;;12.54;97.98;101033.53;5074884;28;20052;-67
2023/11/21 02:12:56;;;;;;;15.75;7.93;;;12.20;99.90;;;12.64;98.77;101047.59;5075032;28;20059;-67
2023/11/21 02:15:28;;;;;;;14.60;8.07;;;12.20;99.90;;;12.68;98.61;101046.66;5090485;28;20060;-67
2023/11/21 02:17:58;;;;;;;15.48;8.38;;;12.30;99.90;;;12.72;98.75;101050.19;5074624;28;20487;-67
2023/11/21 02:20:29;;;;;;;15.45;7.75;;;12.30;99.90;;;12.80;98.54;101046.56;5074843;28;20415;-67
2023/11/21 02:22:59;;;;;;;15.43;8.23;;;12.40;99.90;;;12.81;98.43;101048.31;5090658;28;20051;-67
2023/11/21 02:25:30;;;;;;;14.68;7.60;;;12.50;99.90;;;12.87;98.50;101050.91;5089660;28;20067;-67
2023/11/21 02:28:01;;;;;;;14.73;7.47;;;12.50;99.90;;;12.69;98.25;101019.25;5073405;28;20149;-67
2023/11/21 02:30:32;;;;;;;15.35;7.65;;;12.50;99.90;;;12.94;98.01;101052.59;5074588;28;20041;-67
2023/11/21 02:33:02;;;;;;;15.60;7.93;;;12.50;99.90;;;13.00;97.64;101052.53;5074633;28;20044;-68
2023/11/21 02:35:31;;;;;;;15.65;7.85;;;12.60;99.90;;;13.06;97.13;101057.81;5074515;28;20048;-67
2023/11/21 02:38:02;;;;;;;17.63;7.53;;;12.70;99.90;;;13.09;97.04;101057.75;5074420;28;20040;-68
2023/11/21 02:40:31;;;;;;;15.50;8.00;;;12.70;99.90;;;13.09;96.66;101049.78;5073185;28;20451;-67
2023/11/21 02:42:59;;;;;;;12.98;7.70;;;12.70;99.90;;;13.08;97.07;101058.69;5073039;28;20098;-67
2023/11/21 02:45:28;;;;;;;15.25;7.70;;;12.70;99.90;;;13.08;97.25;101055.13;5074252;28;20059;-67
2023/11/21 02:47:56;;;;;;;14.43;7.97;;;12.70;99.90;;;13.13;97.14;101051.53;5073877;28;20506;-67
2023/11/21 02:50:26;;;;;;;12.65;7.35;;;12.70;99.90;;;13.12;97.08;101049.78;5074082;28;20233;-67
2023/11/21 02:52:57;;;;;;;13.75;7.40;;;12.80;99.90;;;13.18;96.59;101059.44;5072866;28;20053;-67
2023/11/21 02:55:27;;;;;;;14.57;7.88;;;12.80;99.90;;;13.15;96.74;101054.16;5074225;28;20422;-67
2023/11/21 02:57:57;;;;;;;12.60;8.38;;;12.80;99.90;;;13.22;96.78;101069.13;5089789;28;20114;-67
2023/11/21 03:00:26;;;;;;;12.43;8.05;;;12.90;99.90;;;13.24;96.52;101070.00;5073999;28;20052;-67
2023/11/21 03:02:56;;;;;;;12.43;7.80;;;12.90;99.90;;;13.23;96.69;101066.47;5073702;28;20047;-67
2023/11/21 03:05:27;;;;;;;12.68;8.57;;;12.90;99.90;;;13.26;96.71;101065.50;5089540;28;20048;-67
2023/11/21 03:07:57;;;;;;;12.90;7.90;;;12.90;99.90;;;13.29;96.53;101076.13;5089475;28;20453;-67
2023/11/21 03:10:28;;;;;;;14.35;7.53;;;12.90;99.90;;;13.30;96.88;101072.56;5073472;28;20052;-65
2023/11/21 03:12:57;;;;;;;14.33;7.63;;;13.00;99.90;;;13.08;97.50;101069.31;5074069;28;20143;-66
2023/11/21 03:15:25;;;;;;;10.27;6.93;;;12.80;99.90;;;13.00;98.44;101067.56;5072436;28;20040;-66
2023/11/21 03:17:54;;;;;;;11.43;7.70;;;12.70;99.90;;;12.99;98.84;101065.84;5073632;28;20057;-66
2023/11/21 03:20:22;;;;;;;14.10;8.05;;;12.60;99.90;;;12.83;98.89;101027.94;5073617;28;20445;-66
2023/11/21 03:22:51;;;;;;;11.55;6.93;;;12.60;99.90;;;13.05;98.72;101065.78;5089218;28;20053;-66
2023/11/21 03:25:19;;;;;;;13.15;7.68;;;12.60;99.90;;;13.02;98.96;101081.72;5072226;28;20060;-66
2023/11/21 03:27:50;;;;;;;11.98;7.45;;;12.60;99.90;;;13.07;99.01;101086.09;5073171;28;20530;-68
2023/11/21 03:30:18;;;;;;;13.30;8.00;;;12.70;99.90;;;13.17;98.79;101076.25;5073358;28;20403;-68
2023/11/21 03:32:46;;;;;;;10.93;7.47;;;12.80;99.90;;;13.24;98.26;101085.94;5073434;28;20079;-68
2023/11/21 03:35:15;;;;;;;11.52;7.90;;;12.90;99.90;;;13.28;98.00;101085.84;5072038;28;20075;-68
2023/11/21 03:37:44;;;;;;;12.60;8.40;;;12.90;99.90;;;13.29;98.11;101119.53;5072228;28;20113;-67
2023/11/21 03:40:13;;;;;;;11.23;7.72;;;13.00;99.90;;;13.30;97.77;101099.13;5073249;28;20046;-68
2023/11/21 03:42:42;;;;;;;10.45;7.63;;;13.00;99.90;;;13.27;98.22;101096.50;5071911;28;20487;-67
2023/11/21 03:45:12;;;;;;;9.02;7.22;;;13.00;99.90;;;13.28;98.68;101104.47;5088780;28;20056;-68
2023/11/21 03:47:42;;;;;;;10.43;7.68;;;12.90;99.90;;;13.24;98.92;101113.34;5073236;28;20052;-68
2023/11/21 03:50:11;;;;;;;11.00;7.37;;;12.90;99.90;;;13.28;99.00;101112.44;5073127;28;20445;-68
2023/11/21 03:52:40;;;;;;;9.68;7.32;;;12.90;99.90;;;13.27;99.22;101104.47;5072793;28;20051;-68
2023/11/21 03:55:10;;;;;;;11.23;7.72;;;12.90;99.90;;;13.26;99.12;101108.03;5072474;28;20383;-68
2023/11/21 03:57:41;;;;;;;8.45;7.30;;;12.90;99.90;;;13.29;99.17;101113.31;5087880;28;20414;-68
2023/11/21 04:00:13;;;;;;;8.23;6.78;;;12.90;99.90;;;13.32;99.12;101123.88;5072092;28;20419;-68
2023/11/21 04:02:41;;;;;;;9.35;7.75;;;13.00;99.90;;;13.35;98.97;101124.75;5072120;28;20044;-68
2023/11/21 04:05:10;;;;;;;8.27;7.22;;;13.00;99.90;;;13.30;99.20;101121.25;5072271;28;20043;-68
2023/11/21 04:07:39;;;;;;;9.70;7.75;;;13.00;99.90;;;13.31;99.07;101127.47;5072068;28;20117;-68
2023/11/21 04:10:12;;;;;;;10.02;6.93;;;13.00;99.90;;;13.28;99.12;101133.69;5071766;28;20102;-67
2023/11/21 04:12:41;;;;;;;10.82;7.78;;;12.90;99.90;;;13.34;98.97;101135.38;5072561;28;20040;-68
2023/11/21 04:15:13;;;;;;;8.23;7.13;;;12.90;99.90;;;13.32;99.03;101131.88;5071892;28;20047;-68
2023/11/21 04:17:41;;;;;;;11.23;7.88;;;12.90;99.90;;;13.01;99.39;101083.47;5072239;28;20123;-68
2023/11/21 04:20:11;;;;;;;9.27;7.95;;;12.90;99.90;;;13.34;99.59;101154.88;5087567;28;20053;-67
2023/11/21 04:22:41;;;;;;;8.65;7.10;;;12.90;99.90;;;12.72;99.67;101035.13;5071847;28;20115;-67
2023/11/21 04:25:11;;;;;;;;;;;12.90;99.90;;;13.26;100.00;101129.28;5072209;28;20094;-67
2023/11/21 04:27:40;;;;;;;9.68;7.25;;;13.00;99.90;;;13.36;99.93;101141.56;5072026;28;20401;-67
2023/11/21 04:30:12;;;;;;;11.18;7.95;;;13.00;99.90;;;13.41;99.70;101156.56;5071763;28;20041;-67
2023/11/21 04:32:41;;;;;;;10.38;7.82;;;13.00;99.90;;;12.80;99.77;101051.84;5071786;28;20044;-67
2023/11/21 04:35:10;;;;;;;11.63;8.10;;;13.00;99.90;;;12.64;100.00;101024.59;5071903;28;20041;-67
2023/11/21 04:37:39;;;;;;;10.32;7.63;;;13.00;99.90;;;13.41;100.00;101153.88;5071615;28;20508;-67
2023/11/21 04:40:10;;;;;;;9.52;7.82;;;13.00;99.90;;;13.38;100.00;101163.69;5072158;28;20053;-67
2023/11/21 04:42:38;;;;;;;9.88;8.32;;;13.00;99.90;;;13.45;100.00;101173.38;5072080;28;20053;-67
2023/11/21 04:45:11;;;;;;;7.50;6.60;;;13.00;99.90;;;13.38;100.00;101161.03;5071619;28;20102;-67
2023/11/21 04:47:41;;;;;;;11.38;7.45;;;13.00;99.90;;;13.38;100.00;101169.00;5072181;28;20078;-68
2023/11/21 04:50:10;;;;;;;9.13;7.65;;;13.00;99.90;;;13.35;100.00;101177.00;5075261;28;20052;-67
2023/11/21 04:52:38;;;;;;;9.52;7.40;;;13.00;99.90;;;13.23;100.00;101171.81;5075575;28;20044;-67
2023/11/21 04:55:09;;;;;;;10.52;8.13;;;12.80;99.90;;;13.19;100.00;101176.28;5075809;28;20455;-68
2023/11/21 04:57:39;;;;;;;9.13;7.65;;;12.80;99.90;;;12.60;100.00;101061.81;5075525;28;20044;-68
2023/11/21 05:00:10;;;;;;;8.88;8.00;;;12.90;99.90;;;13.33;100.00;101192.97;5075918;28;20037;-67
2023/11/21 05:02:41;;;;;;;9.40;8.43;;;13.00;99.90;;;13.43;100.00;101201.72;5075679;28;20426;-68
2023/11/21 05:05:10;;;;;;;8.73;7.82;;;13.00;99.90;;;13.46;100.00;101197.25;5075597;28;20390;-67
2023/11/21 05:07:40;;;;;;;8.88;7.95;;;13.10;99.90;;;13.51;100.00;101198.06;5075484;28;20045;-67
2023/11/21 05:10:11;;;;;;;8.90;8.00;;;13.10;99.90;;;13.50;100.00;101203.41;5075137;28;20549;-67
2023/11/21 05:12:42;;;;;;;8.85;7.90;;;13.10;99.90;;;13.45;100.00;101211.44;5075171;28;20480;-67
2023/11/21 05:15:14;;;;;;;9.30;7.43;;;13.10;99.90;;;13.48;100.00;101208.75;5075346;28;20495;-67
2023/11/21 05:17:45;;;;;;;9.45;7.70;;;13.10;99.90;;;13.56;100.00;101216.63;5075376;28;20106;-67
2023/11/21 05:20:17;;;;;;;10.32;7.40;;;13.20;99.90;;;13.49;100.00;101207.84;5075071;28;20048;-67
2023/11/21 05:22:46;;;;;;;9.30;7.22;;;13.10;99.90;;;13.53;100.00;101227.28;5075306;28;20037;-68
2023/11/21 05:25:16;;;;;;;10.23;8.07;;;13.10;99.90;;;13.45;100.00;101230.03;5074933;28;20487;-68
2023/11/21 05:27:45;;;;;;;8.65;7.35;;;13.10;99.90;;;13.45;100.00;101231.81;5075540;28;20132;-67
2023/11/21 05:30:15;;;;;;;8.65;6.85;;;13.10;99.90;;;13.39;100.00;101226.56;5075220;28;20044;-67
2023/11/21 05:32:46;;;;;;;11.07;8.73;;;13.00;99.90;;;13.31;100.00;101234.63;5075135;28;20048;-67
2023/11/21 05:35:15;;;;;;;8.70;7.80;;;13.00;99.90;;;13.31;100.00;101234.63;5074913;28;20045;-67
2023/11/21 05:37:46;;;;;;;9.60;7.07;;;12.90;99.90;;;13.11;100.00;101206.47;5074956;28;20079;-67
2023/11/21 05:40:15;;;;;;;8.25;7.30;;;12.90;99.90;;;13.18;100.00;101226.78;5074915;28;20061;-67
2023/11/21 05:42:45;;;;;;;7.82;6.93;;;12.90;99.90;;;13.19;100.00;101245.34;5074970;28;20491;-67
2023/11/21 05:45:13;;;;;;;8.90;7.05;;;12.80;99.90;;;13.29;100.00;101248.81;5075425;28;20052;-67
2023/11/21 05:47:45;;;;;;;8.23;6.90;;;12.90;99.90;;;13.28;100.00;101245.25;5074846;28;20098;-67
2023/11/21 05:50:16;;;;;;;8.77;6.90;;;12.90;99.90;;;13.27;100.00;101243.50;5074721;28;20127;-67
2023/11/21 05:52:47;;;;;;;9.57;7.25;;;12.90;99.90;;;13.23;100.00;101241.78;5090346;28;20058;-67
2023/11/21 05:55:16;;;;;;;8.70;6.93;;;12.90;99.90;;;13.30;100.00;101258.53;5090333;28;20098;-67
2023/11/21 05:57:45;;;;;;;7.88;7.07;;;12.90;99.90;;;13.28;100.00;101266.50;5074718;28;20032;-67
2023/11/21 06:00:20;;;;;;;8.25;6.63;;;12.90;99.90;;;13.23;100.00;101271.00;5089165;28;20044;-67
2023/11/21 06:02:53;;;;;;;7.47;6.78;;;12.90;99.90;;;13.25;100.00;101269.22;5074345;28;20049;-67
2023/11/21 06:05:25;;;;;;;7.22;6.53;;;12.90;99.90;;;13.37;100.00;101276.19;5074826;28;20055;-67
2023/11/21 06:07:58;;;;;;;6.93;6.22;;;13.00;99.90;;;13.44;100.00;101283.19;5074276;28;20098;-67
2023/11/21 06:10:28;;;;;;;7.43;6.32;;;13.00;99.90;;;13.50;100.00;101289.34;5074122;28;20060;-67
2023/11/21 06:12:57;;;;;;;11.32;6.75;;;13.10;99.90;;;13.50;100.00;101278.72;5072903;28;20048;-70
2023/11/21 06:15:30;;;;;;;6.43;5.80;;;13.20;99.90;;;13.56;100.00;101281.31;5074131;28;20036;-69
2023/11/21 06:18:00;;;;;;;8.25;6.50;;;13.20;99.90;;;13.64;100.00;101293.63;5074358;28;20048;-65
2023/11/21 06:20:29;;;;;;;9.27;6.40;;;13.30;99.90;;;13.72;100.00;101303.31;5074227;28;20052;-68
2023/11/21 06:22:57;;;;;;;7.07;5.93;;;13.40;99.90;;;13.67;100.00;101312.19;5073984;28;20048;-68
2023/11/21 06:25:25;;;;;;;6.85;6.15;;;13.40;99.90;;;13.58;100.00;101297.25;5073995;28;20415;-65
2023/11/21 06:27:54;;;;;;;6.50;5.85;;;13.30;99.90;;;12.81;100.00;101162.47;5089987;28;20052;-66
2023/11/21 06:30:23;;;;;;;6.45;5.82;;;13.30;99.90;;;13.60;100.00;101306.09;5074185;28;20056;-68
2023/11/21 06:32:52;;;;;;;7.03;5.88;;;13.20;99.90;;;13.54;100.00;101309.69;5073829;28;20495;-67
2023/11/21 06:35:23;;;;;;;7.05;5.95;;;13.20;99.90;;;13.63;100.00;101327.31;5074102;28;20395;-68
2023/11/21 06:37:51;;;;;;;6.82;5.50;;;13.20;99.90;;;13.49;100.00;101335.41;5073742;28;20079;-68
2023/11/21 06:40:20;;;;;;;8.60;5.57;;;13.20;99.90;;;13.46;100.00;101326.59;5073636;28;20040;-68
2023/11/21 06:42:50;;;;;;;7.53;5.97;;;13.10;99.90;;;13.32;99.80;101332.03;5072380;28;20406;-68
2023/11/21 06:45:19;;;;;;;8.32;5.75;;;13.00;99.90;;;13.35;100.00;101331.13;5073892;28;20114;-68
2023/11/21 06:47:48;;;;;;;7.22;6.00;;;13.00;99.90;;;13.26;100.00;101329.41;5073412;28;20271;-69
2023/11/21 06:50:17;;;;;;;8.20;5.80;;;12.90;99.90;;;13.20;100.00;101337.41;5073312;28;20075;-68
2023/11/21 06:52:48;;;;;;;8.48;5.90;;;12.80;99.90;;;13.16;100.00;101340.13;5073528;28;20048;-68
2023/11/21 06:55:17;;;;;;;7.55;5.55;;;12.80;99.90;;;13.10;100.00;101345.50;5073209;28;20041;-68
2023/11/21 06:57:46;;;;;;;5.93;5.32;;;12.70;99.90;;;13.06;100.00;101344.63;5073492;28;20083;-68
2023/11/21 07:00:18;;;;;;;9.35;5.18;;;12.70;99.90;;;13.08;100.00;101353.47;5073054;28;20052;-68
2023/11/21 07:02:47;;;;;;;5.85;4.93;;;12.70;99.90;;;13.01;100.00;101359.66;5088493;28;20098;-68
2023/11/21 07:05:20;;;;;;;8.45;5.43;;;12.70;99.90;;;13.03;100.00;101357.91;5072966;28;20094;-68
2023/11/21 07:07:50;;;;;;;7.82;5.40;;;12.70;99.90;;;13.01;100.00;101366.72;5073112;28;20048;-68
2023/11/21 07:10:19;;;;;;;7.90;5.35;;;12.60;99.90;;;13.07;100.00;101367.63;5073085;28;20056;-68
2023/11/21 07:12:48;;;;;;;9.25;5.28;;;12.70;99.90;;;12.92;100.00;101362.38;5073131;28;20037;-68
2023/11/21 07:15:16;;;;;;;10.57;5.88;;;12.60;99.90;;;13.02;100.00;101373.84;5073444;28;20094;-68
2023/11/21 07:17:46;;;;;;;12.75;6.00;;;12.70;99.90;;;13.02;100.00;101374.72;5073752;28;20125;-68
2023/11/21 07:20:16;;;;;;;12.20;5.53;;;12.70;99.90;;;13.11;100.00;101382.66;5073559;28;20131;-68
2023/11/21 07:22:45;;;;;;;15.02;6.20;;;12.80;99.90;;;13.10;100.00;101390.63;5072789;28;20044;-68
2023/11/21 07:25:16;;;;;;;13.07;5.95;;;12.80;99.90;;;13.31;100.00;101404.66;5072758;28;20150;-68
2023/11/21 07:27:44;;;;;;;10.60;5.50;;;13.00;99.90;;;13.34;100.00;101398.41;5072868;28;20044;-68
2023/11/21 07:30:14;;;;;;;12.73;6.22;;;13.00;99.90;;;13.34;100.00;101403.75;5072764;28;20510;-68
2023/11/21 07:32:44;;;;;;;14.17;5.33;;;13.10;99.90;;;13.41;100.00;101416.09;5072483;28;20048;-68
2023/11/21 07:35:13;;;;;;;16.02;6.32;;;13.20;99.90;;;13.43;100.00;101414.31;5073215;28;20044;-68
2023/11/21 07:37:41;;;;;;;13.63;6.10;;;13.20;99.90;;;13.50;100.00;101421.34;5072813;28;20047;-68
2023/11/21 07:40:13;;;;;;;13.67;6.00;;;13.20;99.90;;;13.50;100.00;101421.34;5071407;28;20052;-68
2023/11/21 07:42:43;;;;;;;13.10;5.95;;;13.30;99.90;;;13.52;100.00;101425.78;5073098;28;20068;-68
2023/11/21 07:45:12;;;;;;;12.98;5.85;;;13.30;99.90;;;13.50;100.00;101416.91;5087983;28;20052;-68
2023/11/21 07:47:40;;;;;;;11.80;5.72;;;13.30;99.90;;;13.57;100.00;101423.06;5072270;28;20075;-68
2023/11/21 07:50:10;;;;;;;15.85;5.80;;;13.30;99.90;;;13.62;100.00;101433.66;5072178;28;20502;-68
2023/11/21 07:52:39;;;;;;;16.05;6.28;;;13.30;99.90;;;13.60;100.00;101436.34;5072448;28;20040;-68
2023/11/21 07:55:08;;;;;;;18.60;5.60;;;13.30;99.90;;;13.05;100.00;101344.63;5072134;28;20506;-68
2023/11/21 07:57:37;;;;;;;15.35;6.18;;;13.40;99.90;;;13.62;100.00;101442.53;5072363;28;20048;-62
2023/11/21 08:00:12;;;;;;;13.38;5.82;;;13.40;99.90;;;13.64;100.00;101445.16;5072059;28;20060;-63
2023/11/21 08:02:42;;;;;;;15.38;5.53;;;13.40;99.90;;;13.57;100.00;101431.91;5072121;28;20061;-62
2023/11/21 08:05:11;;;;;;;13.50;5.50;;;13.40;99.90;;;13.63;100.00;101457.56;5072209;28;20048;-63
2023/11/21 08:07:52;;;;;;;18.08;5.85;;;13.40;99.90;;;13.34;100.00;101435.63;5072264;28;20051;-63
2023/11/21 08:10:21;;;;;;;17.08;5.72;;;13.30;99.90;;;13.53;100.00;101464.72;5071871;28;20051;-63
2023/11/21 08:12:51;;;;;;;15.18;5.68;;;13.30;99.90;;;13.56;100.00;101464.72;5071949;28;20124;-63
2023/11/21 08:15:21;;;;;;;11.48;5.10;;;13.30;99.90;;;13.65;100.00;101473.50;5072058;28;20072;-64
2023/11/21 08:17:49;;;;;;;13.80;5.27;;;13.40;99.90;;;13.65;100.00;101478.81;5071886;28;20048;-63
2023/11/21 08:20:18;;;;;;;10.38;5.50;;;13.40;99.90;;;13.69;100.00;101477.91;5071909;28;20041;-62
2023/11/21 08:22:48;;;;;;;13.38;5.45;;;13.50;99.90;;;13.72;100.00;101483.22;5071684;28;20495;-63
2023/11/21 08:25:19;;;;;;;11.73;5.20;;;13.50;99.90;;;13.73;100.00;101487.63;5087312;28;20044;-69
2023/11/21 08:27:48;;;;;;;11.70;5.25;;;13.50;99.90;;;13.75;100.00;101493.81;5087482;28;20048;-67
2023/11/21 08:30:19;;;;;;;9.35;5.13;;;13.50;99.90;;;13.80;100.00;101486.69;5071752;28;20067;-67
2023/11/21 08:32:48;;;;;;;;;;;13.50;99.90;;;13.87;100.00;101486.63;5072446;28;20407;-68
2023/11/21 08:35:17;;;;;;;12.18;5.43;;;13.70;99.90;;;14.07;100.00;101473.19;5071666;28;19921;-68
2023/11/21 08:37:46;;;;;;;16.08;6.18;;;13.80;99.90;;;14.46;100.00;101472.78;5071694;28;20449;-70
2023/11/21 08:40:16;;;;;;;10.65;5.88;;;14.20;99.90;;;14.81;100.00;101481.28;5071974;28;20356;-69
2023/11/21 08:42:46;;;;;;;13.88;6.35;;;14.60;99.90;;;15.04;100.00;101457.88;5071786;28;20041;-67
2023/11/21 08:45:17;;;;;;;14.55;6.18;;;14.90;99.90;;;15.38;98.20;101487.63;5072165;28;20055;-67
2023/11/21 08:47:46;;;;;;;14.55;5.75;;;15.20;99.90;;;15.70;96.90;101493.41;5071692;28;20055;-67
2023/11/21 08:50:16;;;;;;;10.82;5.90;;;15.50;99.90;;;15.64;93.29;101484.63;5071823;28;20080;-67
2023/11/21 08:52:46;;;;;;;14.43;5.45;;;15.50;99.90;;;15.54;91.45;101475.91;5071991;28;20043;-67
2023/11/21 08:55:15;;;;;;;13.65;5.60;;;15.50;99.90;;;15.57;90.20;101504.28;5071558;28;20052;-67
2023/11/21 08:57:46;;;;;;;12.00;5.50;;;15.40;99.90;;;15.61;90.07;101519.34;5071502;28;20449;-67
2023/11/21 09:00:16;;;;;;;9.18;5.35;;;15.40;99.90;;;15.51;89.51;101512.38;5071773;28;20467;-68
2023/11/21 09:02:46;;;;;;;9.95;5.00;;;15.30;99.90;;;15.41;89.77;101516.06;5087282;28;20407;-69
2023/11/21 09:05:17;;;;;;;10.45;5.40;;;15.20;99.90;;;15.35;89.21;101523.22;5071347;28;20040;-69
2023/11/21 09:07:48;;;;;;;9.23;5.05;;;15.10;99.90;;;15.31;89.72;101529.50;5071297;28;20044;-69
2023/11/21 09:10:17;;;;;;;10.05;4.70;;;15.10;99.90;;;15.24;89.77;101521.59;5071494;28;20059;-68
2023/11/21 09:12:45;;;;;;;13.00;5.53;;;15.00;99.90;;;15.18;89.74;101530.56;5070551;28;20079;-69
2023/11/21 09:15:14;;;;;;;8.15;5.25;;;15.00;99.90;;;15.09;90.06;101530.69;5071294;28;20044;-69
2023/11/21 09:17:44;;;;;;;9.40;4.88;;;14.90;99.90;;;14.95;90.50;101532.63;5071264;28;20128;-69
2023/11/21 09:20:14;;;;;;;6.97;4.80;;;14.70;99.90;;;14.90;90.86;101536.25;5071869;28;20048;-69
2023/11/21 09:22:46;;;;;;;9.13;5.35;;;14.70;99.90;;;14.66;91.62;101512.53;5071669;28;20044;-68
2023/11/21 09:25:15;;;;;;;9.70;5.90;;;14.60;99.90;;;14.74;91.82;101548.84;5071298;28;20474;-68
2023/11/21 09:27:43;;;;;;;9.57;6.00;;;14.50;99.90;;;14.64;92.36;101549.81;5071183;28;20411;-67
2023/11/21 09:30:14;;;;;;;9.95;5.70;;;14.50;99.90;;;14.64;92.75;101556.94;5071124;28;20399;-63
2023/11/21 09:32:45;;;;;;;7.78;5.40;;;14.50;99.90;;;14.50;92.93;101559.72;5071369;28;20040;-70
2023/11/21 09:35:14;;;;;;;7.03;5.85;;;14.40;99.90;;;14.51;93.50;101558.84;5070339;28;20049;-70
2023/11/21 09:37:46;;;;;;;9.60;5.47;;;14.30;99.90;;;14.57;93.82;101577.44;5074707;28;20402;-70
2023/11/21 09:40:23;;;;;;;7.70;5.70;;;14.30;99.90;;;14.31;94.06;101532.41;5074909;28;20052;-70
2023/11/21 09:42:57;;;;;;;7.95;6.68;;;14.30;99.90;;;14.61;94.32;101583.59;5074789;28;20110;-71
2023/11/21 09:45:28;;;;;;;8.50;5.65;;;14.30;99.90;;;14.49;94.44;101603.22;5074619;28;20384;-70
2023/11/21 09:47:58;;;;;;;9.02;5.75;;;14.30;99.90;;;14.52;94.62;101600.53;5074881;28;20492;-70
2023/11/21 09:50:27;;;;;;;5.80;5.18;;;14.30;99.90;;;14.45;94.22;101596.16;5074467;28;20495;-71
2023/11/21 09:53:14;;;;;;;7.07;5.85;;;14.30;99.90;;;14.39;94.05;101613.06;5074400;28;20067;-66
2023/11/21 09:55:50;;;;;;;8.50;6.18;;;14.30;99.90;;;14.46;94.32;101629.84;5074548;28;20044;-69
2023/11/21 09:58:21;;;;;;;7.95;5.95;;;14.30;99.90;;;14.48;94.07;101628.06;5074796;28;20040;-69
2023/11/21 10:00:54;;;;;;;8.05;6.35;;;14.30;99.90;;;14.42;94.56;101622.78;5090297;28;20082;-70
2023/11/21 10:03:22;;;;;;;9.75;7.43;;;14.20;99.90;;;14.30;94.80;101631.75;5074367;28;20048;-70
2023/11/21 10:05:53;;;;;;;7.85;6.72;;;14.10;99.90;;;14.26;94.71;101640.66;5074498;28;20064;-70
2023/11/21 10:08:24;;;;;;;;;;;14.10;99.90;;;14.17;94.96;101653.09;5074669;28;20060;-70
2023/11/21 10:10:54;;;;;;;;;;;14.10;99.90;;;14.20;95.54;101642.47;5074744;28;19924;-70
2023/11/21 10:13:22;;;;;;;8.15;6.38;;;14.10;99.90;;;14.15;95.62;101644.28;5075041;28;19924;-70
2023/11/21 10:15:52;;;;;;;7.63;6.80;;;14.00;99.90;;;14.08;95.62;101650.50;5074540;28;20044;-70
2023/11/21 10:18:25;;;;;;;8.35;6.63;;;14.00;99.90;;;14.15;95.89;101662.91;5074901;28;20053;-70